sensor_id;sensor_type;location;lat;lon;timestamp;temperature;humidity
47414;DHT22;33163;0.000;0.000;2022-08-07T00:02:13;22.70;58.30
47414;DHT22;33163;0.000;0.000;2022-08-07T00:04:41;22.60;58.30
47414;DHT22;33163;0.000;0.000;2022-08-07T00:07:09;22.60;58.10
47414;DHT22;33163;0.000;0.000;2022-08-07T00:09:35;22.60;58.20
47414;DHT22;33163;0.000;0.000;2022-08-07T00:12:05;22.60;58.30
47414;DHT22;33163;0.000;0.000;2022-08-07T00:14:32;22.60;58.20
47414;DHT22;33163;0.000;0.000;2022-08-07T00:16:59;22.60;58.30
47414;DHT22;33163;0.000;0.000;2022-08-07T00:19:27;22.60;58.20
47414;DHT22;33163;0.000;0.000;2022-08-07T00:21:55;22.60;58.20
47414;DHT22;33163;0.000;0.000;2022-08-07T00:24:22;22.60;58.30
47414;DHT22;33163;0.000;0.000;2022-08-07T00:26:49;22.60;58.30
47414;DHT22;33163;0.000;0.000;2022-08-07T00:29:18;22.60;58.30
47414;DHT22;33163;0.000;0.000;2022-08-07T00:31:50;22.60;58.30
47414;DHT22;33163;0.000;0.000;2022-08-07T00:34:17;22.60;58.30
47414;DHT22;33163;0.000;0.000;2022-08-07T00:36:44;22.60;58.30
47414;DHT22;33163;0.000;0.000;2022-08-07T00:39:11;22.60;58.30
47414;DHT22;33163;0.000;0.000;2022-08-07T00:41:38;22.60;58.20
47414;DHT22;33163;0.000;0.000;2022-08-07T00:44:05;22.60;58.30
47414;DHT22;33163;0.000;0.000;2022-08-07T00:46:33;22.50;58.30
47414;DHT22;33163;0.000;0.000;2022-08-07T00:49:00;22.60;58.30
47414;DHT22;33163;0.000;0.000;2022-08-07T00:51:27;22.50;58.30
47414;DHT22;33163;0.000;0.000;2022-08-07T00:53:54;22.50;58.30
47414;DHT22;33163;0.000;0.000;2022-08-07T00:56:21;22.50;58.30
47414;DHT22;33163;0.000;0.000;2022-08-07T00:58:48;22.50;58.30
47414;DHT22;33163;0.000;0.000;2022-08-07T01:01:15;22.50;58.30
47414;DHT22;33163;0.000;0.000;2022-08-07T01:03:44;22.50;58.30
47414;DHT22;33163;0.000;0.000;2022-08-07T01:06:11;22.50;58.40
47414;DHT22;33163;0.000;0.000;2022-08-07T01:08:39;22.50;58.30
47414;DHT22;33163;0.000;0.000;2022-08-07T01:11:06;22.50;58.40
47414;DHT22;33163;0.000;0.000;2022-08-07T01:13:34;22.50;58.40
47414;DHT22;33163;0.000;0.000;2022-08-07T01:16:01;22.50;58.40
47414;DHT22;33163;0.000;0.000;2022-08-07T01:18:29;22.50;58.40
47414;DHT22;33163;0.000;0.000;2022-08-07T01:21:09;22.50;58.40
47414;DHT22;33163;0.000;0.000;2022-08-07T01:23:36;22.50;58.30
47414;DHT22;33163;0.000;0.000;2022-08-07T01:26:03;22.50;58.40
47414;DHT22;33163;0.000;0.000;2022-08-07T01:28:30;22.50;58.50
47414;DHT22;33163;0.000;0.000;2022-08-07T01:31:00;22.50;58.40
47414;DHT22;33163;0.000;0.000;2022-08-07T01:33:28;22.50;58.40
47414;DHT22;33163;0.000;0.000;2022-08-07T01:35:56;22.50;58.40
47414;DHT22;33163;0.000;0.000;2022-08-07T01:38:24;22.50;58.40
47414;DHT22;33163;0.000;0.000;2022-08-07T01:40:53;22.40;58.40
47414;DHT22;33163;0.000;0.000;2022-08-07T01:43:23;22.50;58.40
47414;DHT22;33163;0.000;0.000;2022-08-07T01:45:50;22.40;58.40
47414;DHT22;33163;0.000;0.000;2022-08-07T01:48:17;22.40;58.40
47414;DHT22;33163;0.000;0.000;2022-08-07T01:50:46;22.40;58.40
47414;DHT22;33163;0.000;0.000;2022-08-07T01:53:16;22.40;58.40
47414;DHT22;33163;0.000;0.000;2022-08-07T01:55:49;22.40;58.50
47414;DHT22;33163;0.000;0.000;2022-08-07T01:58:20;22.40;58.40
47414;DHT22;33163;0.000;0.000;2022-08-07T02:00:52;22.40;59.20
47414;DHT22;33163;0.000;0.000;2022-08-07T02:03:22;22.40;58.40
47414;DHT22;33163;0.000;0.000;2022-08-07T02:05:52;22.40;58.50
47414;DHT22;33163;0.000;0.000;2022-08-07T02:08:23;22.40;58.50
47414;DHT22;33163;0.000;0.000;2022-08-07T02:10:53;22.40;58.50
47414;DHT22;33163;0.000;0.000;2022-08-07T02:13:25;22.40;58.50
47414;DHT22;33163;0.000;0.000;2022-08-07T02:15:53;22.40;58.50
47414;DHT22;33163;0.000;0.000;2022-08-07T02:18:22;22.40;58.50
47414;DHT22;33163;0.000;0.000;2022-08-07T02:20:54;22.40;58.60
47414;DHT22;33163;0.000;0.000;2022-08-07T02:23:22;22.40;58.50
47414;DHT22;33163;0.000;0.000;2022-08-07T02:25:53;22.40;58.50
47414;DHT22;33163;0.000;0.000;2022-08-07T02:28:21;22.40;58.50
47414;DHT22;33163;0.000;0.000;2022-08-07T02:30:49;22.30;58.50
47414;DHT22;33163;0.000;0.000;2022-08-07T02:33:17;22.40;58.50
47414;DHT22;33163;0.000;0.000;2022-08-07T02:35:47;22.40;59.20
47414;DHT22;33163;0.000;0.000;2022-08-07T02:38:16;22.30;58.60
47414;DHT22;33163;0.000;0.000;2022-08-07T02:40:43;22.40;58.40
47414;DHT22;33163;0.000;0.000;2022-08-07T02:43:12;22.30;58.50
47414;DHT22;33163;0.000;0.000;2022-08-07T02:45:41;22.30;58.50
47414;DHT22;33163;0.000;0.000;2022-08-07T02:48:09;22.30;58.50
47414;DHT22;33163;0.000;0.000;2022-08-07T02:50:40;22.30;58.50
47414;DHT22;33163;0.000;0.000;2022-08-07T02:53:10;22.30;58.60
47414;DHT22;33163;0.000;0.000;2022-08-07T02:55:42;22.30;58.50
47414;DHT22;33163;0.000;0.000;2022-08-07T02:58:15;22.30;58.50
47414;DHT22;33163;0.000;0.000;2022-08-07T03:00:43;22.30;58.60
47414;DHT22;33163;0.000;0.000;2022-08-07T03:03:10;22.30;58.50
47414;DHT22;33163;0.000;0.000;2022-08-07T03:05:38;22.30;58.50
47414;DHT22;33163;0.000;0.000;2022-08-07T03:08:06;22.30;58.50
47414;DHT22;33163;0.000;0.000;2022-08-07T03:10:33;22.30;58.40
47414;DHT22;33163;0.000;0.000;2022-08-07T03:13:00;22.30;58.50
47414;DHT22;33163;0.000;0.000;2022-08-07T03:15:29;22.30;59.20
47414;DHT22;33163;0.000;0.000;2022-08-07T03:17:56;22.30;58.60
47414;DHT22;33163;0.000;0.000;2022-08-07T03:20:24;22.30;58.50
47414;DHT22;33163;0.000;0.000;2022-08-07T03:22:54;22.30;58.50
47414;DHT22;33163;0.000;0.000;2022-08-07T03:25:23;22.30;58.50
47414;DHT22;33163;0.000;0.000;2022-08-07T03:27:50;22.30;58.40
47414;DHT22;33163;0.000;0.000;2022-08-07T03:30:18;22.20;58.50
47414;DHT22;33163;0.000;0.000;2022-08-07T03:32:48;22.20;58.40
47414;DHT22;33163;0.000;0.000;2022-08-07T03:35:16;22.20;58.50
47414;DHT22;33163;0.000;0.000;2022-08-07T03:37:49;22.20;58.50
47414;DHT22;33163;0.000;0.000;2022-08-07T03:40:17;22.20;58.50
47414;DHT22;33163;0.000;0.000;2022-08-07T03:42:45;22.20;58.50
47414;DHT22;33163;0.000;0.000;2022-08-07T03:45:12;22.20;58.50
47414;DHT22;33163;0.000;0.000;2022-08-07T03:47:39;22.20;58.50
47414;DHT22;33163;0.000;0.000;2022-08-07T03:50:08;22.20;58.40
47414;DHT22;33163;0.000;0.000;2022-08-07T03:52:35;22.20;58.40
47414;DHT22;33163;0.000;0.000;2022-08-07T03:55:03;22.20;58.40
47414;DHT22;33163;0.000;0.000;2022-08-07T03:57:31;22.20;58.50
47414;DHT22;33163;0.000;0.000;2022-08-07T03:59:58;22.20;58.40
47414;DHT22;33163;0.000;0.000;2022-08-07T04:02:27;22.20;58.40
47414;DHT22;33163;0.000;0.000;2022-08-07T04:04:54;22.20;58.50
47414;DHT22;33163;0.000;0.000;2022-08-07T04:07:22;22.20;58.50
47414;DHT22;33163;0.000;0.000;2022-08-07T04:09:49;22.20;58.50
47414;DHT22;33163;0.000;0.000;2022-08-07T04:12:17;22.20;58.50
47414;DHT22;33163;0.000;0.000;2022-08-07T04:14:45;22.20;58.50
47414;DHT22;33163;0.000;0.000;2022-08-07T04:17:12;22.20;58.50
47414;DHT22;33163;0.000;0.000;2022-08-07T04:19:39;22.20;58.50
47414;DHT22;33163;0.000;0.000;2022-08-07T04:22:07;22.20;58.60
47414;DHT22;33163;0.000;0.000;2022-08-07T04:24:35;22.20;58.50
47414;DHT22;33163;0.000;0.000;2022-08-07T04:27:03;22.20;58.50
47414;DHT22;33163;0.000;0.000;2022-08-07T04:29:30;22.10;58.40
47414;DHT22;33163;0.000;0.000;2022-08-07T04:31:57;22.20;58.50
47414;DHT22;33163;0.000;0.000;2022-08-07T04:34:24;22.10;58.40
47414;DHT22;33163;0.000;0.000;2022-08-07T04:36:52;22.10;58.50
47414;DHT22;33163;0.000;0.000;2022-08-07T04:39:19;22.10;58.40
47414;DHT22;33163;0.000;0.000;2022-08-07T04:41:47;22.20;58.50
47414;DHT22;33163;0.000;0.000;2022-08-07T04:44:15;22.10;58.40
47414;DHT22;33163;0.000;0.000;2022-08-07T04:46:46;22.10;58.40
47414;DHT22;33163;0.000;0.000;2022-08-07T04:49:19;22.10;58.50
47414;DHT22;33163;0.000;0.000;2022-08-07T04:51:54;22.10;58.50
47414;DHT22;33163;0.000;0.000;2022-08-07T04:54:29;22.10;58.50
47414;DHT22;33163;0.000;0.000;2022-08-07T04:57:03;22.10;58.50
47414;DHT22;33163;0.000;0.000;2022-08-07T04:59:36;22.10;58.50
47414;DHT22;33163;0.000;0.000;2022-08-07T05:02:09;22.10;58.50
47414;DHT22;33163;0.000;0.000;2022-08-07T05:04:41;22.10;58.50
47414;DHT22;33163;0.000;0.000;2022-08-07T05:07:15;22.10;58.50
47414;DHT22;33163;0.000;0.000;2022-08-07T05:09:49;22.10;58.50
47414;DHT22;33163;0.000;0.000;2022-08-07T05:12:25;22.10;58.60
47414;DHT22;33163;0.000;0.000;2022-08-07T05:14:57;22.10;58.60
47414;DHT22;33163;0.000;0.000;2022-08-07T05:17:26;22.10;58.50
47414;DHT22;33163;0.000;0.000;2022-08-07T05:19:55;22.10;58.60
47414;DHT22;33163;0.000;0.000;2022-08-07T05:22:23;22.10;58.50
47414;DHT22;33163;0.000;0.000;2022-08-07T05:24:51;22.10;58.50
47414;DHT22;33163;0.000;0.000;2022-08-07T05:27:22;22.10;58.70
47414;DHT22;33163;0.000;0.000;2022-08-07T05:29:49;22.10;58.60
47414;DHT22;33163;0.000;0.000;2022-08-07T05:32:18;22.10;58.50
47414;DHT22;33163;0.000;0.000;2022-08-07T05:34:46;22.10;58.50
47414;DHT22;33163;0.000;0.000;2022-08-07T05:37:14;22.10;58.70
47414;DHT22;33163;0.000;0.000;2022-08-07T05:39:42;22.10;58.70
47414;DHT22;33163;0.000;0.000;2022-08-07T05:42:10;22.10;58.80
47414;DHT22;33163;0.000;0.000;2022-08-07T05:44:39;22.10;58.90
47414;DHT22;33163;0.000;0.000;2022-08-07T05:47:07;22.10;58.90
47414;DHT22;33163;0.000;0.000;2022-08-07T05:49:34;22.10;58.90
47414;DHT22;33163;0.000;0.000;2022-08-07T05:52:02;22.10;59.00
47414;DHT22;33163;0.000;0.000;2022-08-07T05:54:29;22.10;59.00
47414;DHT22;33163;0.000;0.000;2022-08-07T05:56:57;22.10;59.10
47414;DHT22;33163;0.000;0.000;2022-08-07T05:59:24;22.10;59.10
47414;DHT22;33163;0.000;0.000;2022-08-07T06:01:53;22.10;59.20
47414;DHT22;33163;0.000;0.000;2022-08-07T06:04:23;22.10;59.30
47414;DHT22;33163;0.000;0.000;2022-08-07T06:06:50;22.10;59.30
47414;DHT22;33163;0.000;0.000;2022-08-07T06:09:17;22.10;59.40
47414;DHT22;33163;0.000;0.000;2022-08-07T06:11:44;22.10;59.40
47414;DHT22;33163;0.000;0.000;2022-08-07T06:14:11;22.10;59.40
47414;DHT22;33163;0.000;0.000;2022-08-07T06:16:39;22.10;59.40
47414;DHT22;33163;0.000;0.000;2022-08-07T06:19:08;22.10;59.40
47414;DHT22;33163;0.000;0.000;2022-08-07T06:21:35;22.10;59.50
47414;DHT22;33163;0.000;0.000;2022-08-07T06:24:03;22.10;59.40
47414;DHT22;33163;0.000;0.000;2022-08-07T06:26:30;22.10;59.40
47414;DHT22;33163;0.000;0.000;2022-08-07T06:28:57;22.10;59.50
47414;DHT22;33163;0.000;0.000;2022-08-07T06:31:25;22.10;59.50
47414;DHT22;33163;0.000;0.000;2022-08-07T06:33:51;22.10;59.50
47414;DHT22;33163;0.000;0.000;2022-08-07T06:36:20;22.10;59.50
47414;DHT22;33163;0.000;0.000;2022-08-07T06:38:47;22.10;59.50
47414;DHT22;33163;0.000;0.000;2022-08-07T06:41:24;22.10;59.50
47414;DHT22;33163;0.000;0.000;2022-08-07T06:43:53;22.10;59.50
47414;DHT22;33163;0.000;0.000;2022-08-07T06:46:20;22.10;59.50
47414;DHT22;33163;0.000;0.000;2022-08-07T06:48:47;22.20;59.60
47414;DHT22;33163;0.000;0.000;2022-08-07T06:51:16;22.20;59.50
47414;DHT22;33163;0.000;0.000;2022-08-07T06:53:45;22.20;59.50
47414;DHT22;33163;0.000;0.000;2022-08-07T06:56:14;22.20;59.50
47414;DHT22;33163;0.000;0.000;2022-08-07T06:59:03;22.20;59.50
47414;DHT22;33163;0.000;0.000;2022-08-07T07:01:32;22.20;59.50
47414;DHT22;33163;0.000;0.000;2022-08-07T07:03:59;22.20;59.50
47414;DHT22;33163;0.000;0.000;2022-08-07T07:06:26;22.20;59.50
47414;DHT22;33163;0.000;0.000;2022-08-07T07:11:38;22.20;59.50
47414;DHT22;33163;0.000;0.000;2022-08-07T07:14:06;22.20;59.60
47414;DHT22;33163;0.000;0.000;2022-08-07T07:16:37;22.20;59.40
47414;DHT22;33163;0.000;0.000;2022-08-07T07:19:05;22.30;59.30
47414;DHT22;33163;0.000;0.000;2022-08-07T07:21:35;22.30;59.30
47414;DHT22;33163;0.000;0.000;2022-08-07T07:24:05;22.30;59.30
47414;DHT22;33163;0.000;0.000;2022-08-07T07:26:36;22.40;59.30
47414;DHT22;33163;0.000;0.000;2022-08-07T07:29:09;22.40;59.40
47414;DHT22;33163;0.000;0.000;2022-08-07T07:31:40;22.50;59.20
47414;DHT22;33163;0.000;0.000;2022-08-07T07:34:10;22.50;58.10
47414;DHT22;33163;0.000;0.000;2022-08-07T07:36:39;22.50;56.80
47414;DHT22;33163;0.000;0.000;2022-08-07T07:39:09;22.50;55.90
47414;DHT22;33163;0.000;0.000;2022-08-07T07:41:38;22.50;55.50
47414;DHT22;33163;0.000;0.000;2022-08-07T07:44:08;22.50;55.60
47414;DHT22;33163;0.000;0.000;2022-08-07T07:46:36;22.40;56.00
47414;DHT22;33163;0.000;0.000;2022-08-07T07:49:06;22.30;55.40
47414;DHT22;33163;0.000;0.000;2022-08-07T07:51:36;22.30;55.70
47414;DHT22;33163;0.000;0.000;2022-08-07T07:54:04;22.30;55.60
47414;DHT22;33163;0.000;0.000;2022-08-07T07:56:34;22.30;55.60
47414;DHT22;33163;0.000;0.000;2022-08-07T07:59:03;22.30;55.40
47414;DHT22;33163;0.000;0.000;2022-08-07T08:01:31;22.30;55.60
47414;DHT22;33163;0.000;0.000;2022-08-07T08:04:02;22.20;55.70
47414;DHT22;33163;0.000;0.000;2022-08-07T08:06:30;22.20;55.70
47414;DHT22;33163;0.000;0.000;2022-08-07T08:08:59;22.20;55.90
47414;DHT22;33163;0.000;0.000;2022-08-07T08:11:27;22.20;56.00
47414;DHT22;33163;0.000;0.000;2022-08-07T08:13:56;22.20;56.10
47414;DHT22;33163;0.000;0.000;2022-08-07T08:16:26;22.20;55.70
47414;DHT22;33163;0.000;0.000;2022-08-07T08:18:55;22.20;55.70
47414;DHT22;33163;0.000;0.000;2022-08-07T08:21:24;22.20;55.70
47414;DHT22;33163;0.000;0.000;2022-08-07T08:24:08;22.20;55.70
47414;DHT22;33163;0.000;0.000;2022-08-07T08:26:56;22.20;55.40
47414;DHT22;33163;0.000;0.000;2022-08-07T08:29:36;22.20;55.30
47414;DHT22;33163;0.000;0.000;2022-08-07T08:32:06;22.20;54.80
47414;DHT22;33163;0.000;0.000;2022-08-07T08:34:37;22.20;54.70
47414;DHT22;33163;0.000;0.000;2022-08-07T08:37:07;22.20;54.60
47414;DHT22;33163;0.000;0.000;2022-08-07T08:39:36;22.20;54.30
47414;DHT22;33163;0.000;0.000;2022-08-07T08:42:05;22.20;54.10
47414;DHT22;33163;0.000;0.000;2022-08-07T08:44:37;22.20;54.30
47414;DHT22;33163;0.000;0.000;2022-08-07T08:47:07;22.20;54.30
47414;DHT22;33163;0.000;0.000;2022-08-07T08:49:43;22.20;54.50
47414;DHT22;33163;0.000;0.000;2022-08-07T08:52:18;22.30;54.20
47414;DHT22;33163;0.000;0.000;2022-08-07T08:54:53;22.30;54.50
47414;DHT22;33163;0.000;0.000;2022-08-07T08:57:28;22.40;55.00
47414;DHT22;33163;0.000;0.000;2022-08-07T09:00:05;22.40;54.80
47414;DHT22;33163;0.000;0.000;2022-08-07T09:02:39;22.40;54.40
47414;DHT22;33163;0.000;0.000;2022-08-07T09:05:25;22.40;54.90
47414;DHT22;33163;0.000;0.000;2022-08-07T09:07:59;22.40;54.50
47414;DHT22;33163;0.000;0.000;2022-08-07T09:10:35;22.40;54.10
47414;DHT22;33163;0.000;0.000;2022-08-07T09:13:08;22.50;54.60
47414;DHT22;33163;0.000;0.000;2022-08-07T09:15:50;22.50;54.50
47414;DHT22;33163;0.000;0.000;2022-08-07T09:18:33;22.40;54.30
47414;DHT22;33163;0.000;0.000;2022-08-07T09:21:09;22.50;54.60
47414;DHT22;33163;0.000;0.000;2022-08-07T09:23:49;22.50;54.60
47414;DHT22;33163;0.000;0.000;2022-08-07T09:26:26;22.50;54.40
47414;DHT22;33163;0.000;0.000;2022-08-07T09:29:04;22.50;55.40
47414;DHT22;33163;0.000;0.000;2022-08-07T09:31:38;22.60;54.80
47414;DHT22;33163;0.000;0.000;2022-08-07T09:34:12;22.60;55.00
47414;DHT22;33163;0.000;0.000;2022-08-07T09:36:44;22.60;55.20
47414;DHT22;33163;0.000;0.000;2022-08-07T09:39:26;22.60;55.10
47414;DHT22;33163;0.000;0.000;2022-08-07T09:42:01;22.60;55.20
47414;DHT22;33163;0.000;0.000;2022-08-07T09:44:43;22.60;55.00
47414;DHT22;33163;0.000;0.000;2022-08-07T09:47:20;22.60;55.10
47414;DHT22;33163;0.000;0.000;2022-08-07T09:49:56;22.70;55.80
47414;DHT22;33163;0.000;0.000;2022-08-07T09:52:29;22.70;53.50
47414;DHT22;33163;0.000;0.000;2022-08-07T09:55:03;22.70;53.50
47414;DHT22;33163;0.000;0.000;2022-08-07T09:57:56;22.70;54.00
47414;DHT22;33163;0.000;0.000;2022-08-07T10:00:42;22.80;53.50
47414;DHT22;33163;0.000;0.000;2022-08-07T10:03:34;22.70;53.20
47414;DHT22;33163;0.000;0.000;2022-08-07T10:06:42;22.70;52.80
47414;DHT22;33163;0.000;0.000;2022-08-07T10:09:43;22.70;53.10
47414;DHT22;33163;0.000;0.000;2022-08-07T10:12:21;22.80;53.40
47414;DHT22;33163;0.000;0.000;2022-08-07T10:15:08;22.70;52.80
47414;DHT22;33163;0.000;0.000;2022-08-07T10:17:58;22.70;53.30
47414;DHT22;33163;0.000;0.000;2022-08-07T10:20:44;22.70;53.50
47414;DHT22;33163;0.000;0.000;2022-08-07T10:23:55;22.70;53.80
47414;DHT22;33163;0.000;0.000;2022-08-07T10:26:40;22.80;54.00
47414;DHT22;33163;0.000;0.000;2022-08-07T10:29:22;22.80;54.20
47414;DHT22;33163;0.000;0.000;2022-08-07T10:32:04;22.80;54.40
47414;DHT22;33163;0.000;0.000;2022-08-07T10:34:51;22.80;54.70
47414;DHT22;33163;0.000;0.000;2022-08-07T10:37:28;22.80;54.80
47414;DHT22;33163;0.000;0.000;2022-08-07T10:40:05;22.80;55.00
47414;DHT22;33163;0.000;0.000;2022-08-07T10:42:37;22.80;55.00
47414;DHT22;33163;0.000;0.000;2022-08-07T10:45:17;22.90;55.10
47414;DHT22;33163;0.000;0.000;2022-08-07T10:47:50;22.90;55.20
47414;DHT22;33163;0.000;0.000;2022-08-07T10:50:28;22.90;55.30
47414;DHT22;33163;0.000;0.000;2022-08-07T10:53:06;22.90;55.50
47414;DHT22;33163;0.000;0.000;2022-08-07T10:55:41;22.90;55.00
47414;DHT22;33163;0.000;0.000;2022-08-07T10:58:16;23.00;54.50
47414;DHT22;33163;0.000;0.000;2022-08-07T11:00:52;23.00;54.70
47414;DHT22;33163;0.000;0.000;2022-08-07T11:03:28;23.00;55.00
47414;DHT22;33163;0.000;0.000;2022-08-07T11:06:10;23.00;54.90
47414;DHT22;33163;0.000;0.000;2022-08-07T11:08:45;23.00;55.20
47414;DHT22;33163;0.000;0.000;2022-08-07T11:11:14;23.00;54.90
47414;DHT22;33163;0.000;0.000;2022-08-07T11:13:46;23.00;55.40
47414;DHT22;33163;0.000;0.000;2022-08-07T11:16:19;23.00;55.30
47414;DHT22;33163;0.000;0.000;2022-08-07T11:18:50;23.10;55.10
47414;DHT22;33163;0.000;0.000;2022-08-07T11:21:28;23.10;55.40
47414;DHT22;33163;0.000;0.000;2022-08-07T11:24:04;23.10;55.10
47414;DHT22;33163;0.000;0.000;2022-08-07T11:26:40;23.10;55.10
47414;DHT22;33163;0.000;0.000;2022-08-07T11:29:16;23.10;54.30
47414;DHT22;33163;0.000;0.000;2022-08-07T11:31:50;23.20;54.80
47414;DHT22;33163;0.000;0.000;2022-08-07T11:34:21;23.20;54.80
47414;DHT22;33163;0.000;0.000;2022-08-07T11:37:10;23.20;54.60
47414;DHT22;33163;0.000;0.000;2022-08-07T11:39:50;23.20;54.40
47414;DHT22;33163;0.000;0.000;2022-08-07T11:42:24;23.20;54.10
47414;DHT22;33163;0.000;0.000;2022-08-07T11:45:07;23.20;54.20
47414;DHT22;33163;0.000;0.000;2022-08-07T11:47:49;23.20;54.30
47414;DHT22;33163;0.000;0.000;2022-08-07T11:50:31;23.20;53.90
47414;DHT22;33163;0.000;0.000;2022-08-07T11:53:12;23.20;53.90
47414;DHT22;33163;0.000;0.000;2022-08-07T11:55:54;23.20;53.30
47414;DHT22;33163;0.000;0.000;2022-08-07T11:58:37;23.20;53.50
47414;DHT22;33163;0.000;0.000;2022-08-07T12:01:20;23.20;53.80
47414;DHT22;33163;0.000;0.000;2022-08-07T12:04:06;23.30;53.90
47414;DHT22;33163;0.000;0.000;2022-08-07T12:06:44;23.30;53.90
47414;DHT22;33163;0.000;0.000;2022-08-07T12:09:16;23.30;53.70
47414;DHT22;33163;0.000;0.000;2022-08-07T12:11:50;23.30;53.80
47414;DHT22;33163;0.000;0.000;2022-08-07T12:14:21;23.30;53.80
47414;DHT22;33163;0.000;0.000;2022-08-07T12:16:52;23.30;53.80
47414;DHT22;33163;0.000;0.000;2022-08-07T12:19:26;23.30;53.70
47414;DHT22;33163;0.000;0.000;2022-08-07T12:22:02;23.40;53.70
47414;DHT22;33163;0.000;0.000;2022-08-07T12:27:34;23.30;53.60
47414;DHT22;33163;0.000;0.000;2022-08-07T12:30:04;23.40;53.70
47414;DHT22;33163;0.000;0.000;2022-08-07T12:32:37;23.40;53.90
47414;DHT22;33163;0.000;0.000;2022-08-07T12:35:08;23.40;54.00
47414;DHT22;33163;0.000;0.000;2022-08-07T12:37:37;23.40;54.20
47414;DHT22;33163;0.000;0.000;2022-08-07T12:40:06;23.40;54.10
47414;DHT22;33163;0.000;0.000;2022-08-07T12:42:36;23.40;54.00
47414;DHT22;33163;0.000;0.000;2022-08-07T12:45:08;23.40;53.70
47414;DHT22;33163;0.000;0.000;2022-08-07T12:47:41;23.40;53.10
47414;DHT22;33163;0.000;0.000;2022-08-07T12:50:17;23.40;52.70
47414;DHT22;33163;0.000;0.000;2022-08-07T12:52:49;23.30;53.20
47414;DHT22;33163;0.000;0.000;2022-08-07T12:55:20;23.30;53.50
47414;DHT22;33163;0.000;0.000;2022-08-07T12:57:50;23.30;53.30
47414;DHT22;33163;0.000;0.000;2022-08-07T13:00:17;23.30;53.50
47414;DHT22;33163;0.000;0.000;2022-08-07T13:03:11;23.30;53.20
47414;DHT22;33163;0.000;0.000;2022-08-07T13:05:54;23.30;53.40
47414;DHT22;33163;0.000;0.000;2022-08-07T13:08:39;23.30;53.40
47414;DHT22;33163;0.000;0.000;2022-08-07T13:11:23;23.30;53.40
47414;DHT22;33163;0.000;0.000;2022-08-07T13:14:01;23.40;53.50
47414;DHT22;33163;0.000;0.000;2022-08-07T13:16:34;23.40;53.50
47414;DHT22;33163;0.000;0.000;2022-08-07T13:19:10;23.40;53.70
47414;DHT22;33163;0.000;0.000;2022-08-07T13:21:42;23.40;53.50
47414;DHT22;33163;0.000;0.000;2022-08-07T13:24:17;23.40;53.90
47414;DHT22;33163;0.000;0.000;2022-08-07T13:26:48;23.40;53.90
47414;DHT22;33163;0.000;0.000;2022-08-07T13:29:24;23.40;53.90
47414;DHT22;33163;0.000;0.000;2022-08-07T13:31:55;23.40;53.70
47414;DHT22;33163;0.000;0.000;2022-08-07T13:34:34;23.40;53.90
47414;DHT22;33163;0.000;0.000;2022-08-07T13:37:07;23.40;53.80
47414;DHT22;33163;0.000;0.000;2022-08-07T13:39:42;23.40;52.80
47414;DHT22;33163;0.000;0.000;2022-08-07T13:42:11;23.40;52.50
47414;DHT22;33163;0.000;0.000;2022-08-07T13:44:41;23.40;53.00
47414;DHT22;33163;0.000;0.000;2022-08-07T13:47:09;23.40;53.00
47414;DHT22;33163;0.000;0.000;2022-08-07T13:49:43;23.30;52.50
47414;DHT22;33163;0.000;0.000;2022-08-07T13:52:12;23.30;51.60
47414;DHT22;33163;0.000;0.000;2022-08-07T13:54:40;23.30;52.20
47414;DHT22;33163;0.000;0.000;2022-08-07T13:57:10;23.30;52.20
47414;DHT22;33163;0.000;0.000;2022-08-07T13:59:42;23.30;52.10
47414;DHT22;33163;0.000;0.000;2022-08-07T14:02:12;23.30;52.50
47414;DHT22;33163;0.000;0.000;2022-08-07T14:04:48;23.30;52.30
47414;DHT22;33163;0.000;0.000;2022-08-07T14:07:18;23.30;52.30
47414;DHT22;33163;0.000;0.000;2022-08-07T14:09:45;23.30;52.40
47414;DHT22;33163;0.000;0.000;2022-08-07T14:12:18;23.20;52.10
47414;DHT22;33163;0.000;0.000;2022-08-07T14:14:52;23.20;52.20
47414;DHT22;33163;0.000;0.000;2022-08-07T14:17:22;23.20;52.30
47414;DHT22;33163;0.000;0.000;2022-08-07T14:19:54;23.20;52.40
47414;DHT22;33163;0.000;0.000;2022-08-07T14:22:24;23.20;52.60
47414;DHT22;33163;0.000;0.000;2022-08-07T14:24:59;23.20;52.70
47414;DHT22;33163;0.000;0.000;2022-08-07T14:27:32;23.20;52.70
47414;DHT22;33163;0.000;0.000;2022-08-07T14:30:05;23.20;52.40
47414;DHT22;33163;0.000;0.000;2022-08-07T14:32:38;23.20;52.30
47414;DHT22;33163;0.000;0.000;2022-08-07T14:35:08;23.20;52.30
47414;DHT22;33163;0.000;0.000;2022-08-07T14:37:36;23.20;52.30
47414;DHT22;33163;0.000;0.000;2022-08-07T14:40:05;23.20;52.40
47414;DHT22;33163;0.000;0.000;2022-08-07T14:42:33;23.20;52.60
47414;DHT22;33163;0.000;0.000;2022-08-07T14:45:04;23.20;52.90
47414;DHT22;33163;0.000;0.000;2022-08-07T14:47:33;23.20;52.60
47414;DHT22;33163;0.000;0.000;2022-08-07T14:50:04;23.20;52.60
47414;DHT22;33163;0.000;0.000;2022-08-07T14:52:32;23.20;52.50
47414;DHT22;33163;0.000;0.000;2022-08-07T14:55:01;23.20;52.60
47414;DHT22;33163;0.000;0.000;2022-08-07T14:57:30;23.10;52.20
47414;DHT22;33163;0.000;0.000;2022-08-07T14:59:58;23.10;52.20
47414;DHT22;33163;0.000;0.000;2022-08-07T15:02:28;23.10;52.50
47414;DHT22;33163;0.000;0.000;2022-08-07T15:04:55;23.10;52.50
47414;DHT22;33163;0.000;0.000;2022-08-07T15:07:22;23.10;52.70
47414;DHT22;33163;0.000;0.000;2022-08-07T15:09:52;23.10;52.80
47414;DHT22;33163;0.000;0.000;2022-08-07T15:12:22;23.10;52.60
47414;DHT22;33163;0.000;0.000;2022-08-07T15:14:52;23.10;52.60
47414;DHT22;33163;0.000;0.000;2022-08-07T15:17:25;23.10;52.70
47414;DHT22;33163;0.000;0.000;2022-08-07T15:20:02;23.10;52.50
47414;DHT22;33163;0.000;0.000;2022-08-07T15:22:31;23.00;52.00
47414;DHT22;33163;0.000;0.000;2022-08-07T15:25:02;23.00;52.30
47414;DHT22;33163;0.000;0.000;2022-08-07T15:27:31;23.00;52.20
47414;DHT22;33163;0.000;0.000;2022-08-07T15:30:06;23.00;52.70
47414;DHT22;33163;0.000;0.000;2022-08-07T15:32:39;23.10;52.90
47414;DHT22;33163;0.000;0.000;2022-08-07T15:35:12;23.10;53.10
47414;DHT22;33163;0.000;0.000;2022-08-07T15:37:41;23.10;53.10
47414;DHT22;33163;0.000;0.000;2022-08-07T15:40:14;23.00;52.60
47414;DHT22;33163;0.000;0.000;2022-08-07T15:42:51;23.10;53.00
47414;DHT22;33163;0.000;0.000;2022-08-07T15:45:36;23.10;53.30
47414;DHT22;33163;0.000;0.000;2022-08-07T15:48:07;23.10;53.10
47414;DHT22;33163;0.000;0.000;2022-08-07T15:50:42;23.10;53.20
47414;DHT22;33163;0.000;0.000;2022-08-07T15:53:11;23.10;52.80
47414;DHT22;33163;0.000;0.000;2022-08-07T15:55:49;23.10;52.30
47414;DHT22;33163;0.000;0.000;2022-08-07T15:58:17;23.10;52.30
47414;DHT22;33163;0.000;0.000;2022-08-07T16:00:48;23.00;52.40
47414;DHT22;33163;0.000;0.000;2022-08-07T16:03:18;23.00;52.40
47414;DHT22;33163;0.000;0.000;2022-08-07T16:05:48;23.00;52.80
47414;DHT22;33163;0.000;0.000;2022-08-07T16:08:17;23.00;52.90
47414;DHT22;33163;0.000;0.000;2022-08-07T16:10:48;23.00;52.90
47414;DHT22;33163;0.000;0.000;2022-08-07T16:13:50;23.00;53.10
47414;DHT22;33163;0.000;0.000;2022-08-07T16:16:33;23.00;53.40
47414;DHT22;33163;0.000;0.000;2022-08-07T16:22:15;23.10;54.10
47414;DHT22;33163;0.000;0.000;2022-08-07T16:25:04;23.00;53.70